sensor_id;sensor_type;location;lat;lon;timestamp;P1;durP1;ratioP1;P2;durP2;ratioP2
66927;SDS011;59882;45.624;11.698;2024-01-06T00:01:01;5.40;;;2.67;;
66927;SDS011;59882;45.624;11.698;2024-01-06T00:03:27;7.00;;;3.17;;
66927;SDS011;59882;45.624;11.698;2024-01-06T00:05:52;6.73;;;3.33;;
66927;SDS011;59882;45.624;11.698;2024-01-06T00:08:18;6.83;;;4.17;;
66927;SDS011;59882;45.624;11.698;2024-01-06T00:10:43;4.97;;;1.80;;
66927;SDS011;59882;45.624;11.698;2024-01-06T00:13:10;3.20;;;1.10;;
66927;SDS011;59882;45.624;11.698;2024-01-06T00:15:35;3.28;;;0.90;;
66927;SDS011;59882;45.624;11.698;2024-01-06T00:18:01;4.47;;;0.70;;
66927;SDS011;59882;45.624;11.698;2024-01-06T00:20:27;3.17;;;0.70;;
66927;SDS011;59882;45.624;11.698;2024-01-06T00:22:53;3.05;;;0.60;;
66927;SDS011;59882;45.624;11.698;2024-01-06T00:25:18;2.70;;;0.60;;
66927;SDS011;59882;45.624;11.698;2024-01-06T00:27:44;3.13;;;0.65;;
66927;SDS011;59882;45.624;11.698;2024-01-06T00:30:09;3.33;;;0.67;;
66927;SDS011;59882;45.624;11.698;2024-01-06T00:32:35;4.10;;;0.80;;
66927;SDS011;59882;45.624;11.698;2024-01-06T00:35:01;2.70;;;0.70;;
66927;SDS011;59882;45.624;11.698;2024-01-06T00:37:27;2.20;;;0.30;;
66927;SDS011;59882;45.624;11.698;2024-01-06T00:39:53;1.52;;;0.30;;
66927;SDS011;59882;45.624;11.698;2024-01-06T00:42:19;2.03;;;0.30;;
66927;SDS011;59882;45.624;11.698;2024-01-06T00:44:44;2.53;;;0.30;;
66927;SDS011;59882;45.624;11.698;2024-01-06T00:47:10;3.97;;;0.30;;
66927;SDS011;59882;45.624;11.698;2024-01-06T00:49:36;2.15;;;0.30;;
66927;SDS011;59882;45.624;11.698;2024-01-06T00:52:02;1.77;;;0.20;;
66927;SDS011;59882;45.624;11.698;2024-01-06T00:54:27;2.58;;;0.20;;
66927;SDS011;59882;45.624;11.698;2024-01-06T00:56:54;5.70;;;0.40;;
66927;SDS011;59882;45.624;11.698;2024-01-06T00:59:19;3.17;;;0.30;;
66927;SDS011;59882;45.624;11.698;2024-01-06T01:01:45;2.35;;;0.20;;
66927;SDS011;59882;45.624;11.698;2024-01-06T01:04:10;2.80;;;0.17;;
66927;SDS011;59882;45.624;11.698;2024-01-06T01:06:36;1.90;;;0.10;;
66927;SDS011;59882;45.624;11.698;2024-01-06T01:09:02;1.90;;;0.20;;
66927;SDS011;59882;45.624;11.698;2024-01-06T01:11:29;2.50;;;0.30;;
66927;SDS011;59882;45.624;11.698;2024-01-06T01:13:55;4.75;;;1.60;;
66927;SDS011;59882;45.624;11.698;2024-01-06T01:16:21;4.77;;;1.20;;
66927;SDS011;59882;45.624;11.698;2024-01-06T01:18:46;5.13;;;2.00;;
66927;SDS011;59882;45.624;11.698;2024-01-06T01:21:12;5.60;;;2.20;;
66927;SDS011;59882;45.624;11.698;2024-01-06T01:23:38;3.63;;;0.90;;
66927;SDS011;59882;45.624;11.698;2024-01-06T01:26:03;2.07;;;0.40;;
66927;SDS011;59882;45.624;11.698;2024-01-06T01:28:29;2.22;;;0.25;;
66927;SDS011;59882;45.624;11.698;2024-01-06T01:30:55;2.40;;;0.40;;
66927;SDS011;59882;45.624;11.698;2024-01-06T01:33:20;2.13;;;0.20;;
66927;SDS011;59882;45.624;11.698;2024-01-06T01:35:46;2.00;;;0.30;;
66927;SDS011;59882;45.624;11.698;2024-01-06T01:38:12;1.77;;;0.20;;
66927;SDS011;59882;45.624;11.698;2024-01-06T01:40:37;2.53;;;0.40;;
66927;SDS011;59882;45.624;11.698;2024-01-06T01:43:03;2.83;;;0.53;;
66927;SDS011;59882;45.624;11.698;2024-01-06T01:45:29;2.80;;;0.80;;
66927;SDS011;59882;45.624;11.698;2024-01-06T01:47:54;3.77;;;1.00;;
66927;SDS011;59882;45.624;11.698;2024-01-06T01:50:20;3.17;;;0.70;;
66927;SDS011;59882;45.624;11.698;2024-01-06T01:52:47;4.40;;;1.30;;
66927;SDS011;59882;45.624;11.698;2024-01-06T01:55:13;4.30;;;2.10;;
66927;SDS011;59882;45.624;11.698;2024-01-06T01:57:38;7.20;;;3.95;;
66927;SDS011;59882;45.624;11.698;2024-01-06T02:00:05;6.10;;;4.00;;
66927;SDS011;59882;45.624;11.698;2024-01-06T02:02:32;4.40;;;2.00;;
66927;SDS011;59882;45.624;11.698;2024-01-06T02:04:57;2.45;;;0.60;;
66927;SDS011;59882;45.624;11.698;2024-01-06T02:07:24;1.88;;;0.20;;
66927;SDS011;59882;45.624;11.698;2024-01-06T02:09:50;1.73;;;0.20;;
66927;SDS011;59882;45.624;11.698;2024-01-06T02:12:16;1.40;;;0.17;;
66927;SDS011;59882;45.624;11.698;2024-01-06T02:14:41;2.07;;;0.20;;
66927;SDS011;59882;45.624;11.698;2024-01-06T02:17:08;1.88;;;0.20;;
66927;SDS011;59882;45.624;11.698;2024-01-06T02:19:33;4.40;;;0.30;;
66927;SDS011;59882;45.624;11.698;2024-01-06T02:22:00;2.70;;;0.27;;
66927;SDS011;59882;45.624;11.698;2024-01-06T02:24:25;2.85;;;0.20;;
66927;SDS011;59882;45.624;11.698;2024-01-06T02:26:51;2.57;;;0.30;;
66927;SDS011;59882;45.624;11.698;2024-01-06T02:29:16;2.75;;;0.40;;
66927;SDS011;59882;45.624;11.698;2024-01-06T02:31:42;1.93;;;0.37;;
66927;SDS011;59882;45.624;11.698;2024-01-06T02:34:08;2.25;;;0.20;;
66927;SDS011;59882;45.624;11.698;2024-01-06T02:36:34;1.87;;;0.23;;
66927;SDS011;59882;45.624;11.698;2024-01-06T02:39:00;2.03;;;0.20;;
66927;SDS011;59882;45.624;11.698;2024-01-06T02:41:25;1.60;;;0.30;;
66927;SDS011;59882;45.624;11.698;2024-01-06T02:43:51;1.70;;;0.10;;
66927;SDS011;59882;45.624;11.698;2024-01-06T02:46:19;1.50;;;0.10;;
66927;SDS011;59882;45.624;11.698;2024-01-06T02:48:44;1.90;;;0.20;;
66927;SDS011;59882;45.624;11.698;2024-01-06T02:51:10;2.13;;;0.20;;
66927;SDS011;59882;45.624;11.698;2024-01-06T02:53:37;2.17;;;0.30;;
66927;SDS011;59882;45.624;11.698;2024-01-06T02:56:03;2.53;;;0.20;;
66927;SDS011;59882;45.624;11.698;2024-01-06T02:58:29;2.10;;;0.23;;
66927;SDS011;59882;45.624;11.698;2024-01-06T03:00:55;2.25;;;0.40;;
66927;SDS011;59882;45.624;11.698;2024-01-06T03:03:20;3.03;;;0.53;;
66927;SDS011;59882;45.624;11.698;2024-01-06T03:05:46;4.07;;;1.80;;
66927;SDS011;59882;45.624;11.698;2024-01-06T03:08:14;4.20;;;1.80;;
66927;SDS011;59882;45.624;11.698;2024-01-06T03:10:40;5.00;;;3.10;;
66927;SDS011;59882;45.624;11.698;2024-01-06T03:13:06;5.70;;;2.80;;
66927;SDS011;59882;45.624;11.698;2024-01-06T03:15:31;5.13;;;3.40;;
66927;SDS011;59882;45.624;11.698;2024-01-06T03:17:57;5.00;;;2.97;;
66927;SDS011;59882;45.624;11.698;2024-01-06T03:20:22;4.97;;;2.40;;
66927;SDS011;59882;45.624;11.698;2024-01-06T03:22:48;5.23;;;1.90;;
66927;SDS011;59882;45.624;11.698;2024-01-06T03:25:14;3.35;;;1.10;;
66927;SDS011;59882;45.624;11.698;2024-01-06T03:27:40;3.30;;;0.63;;
66927;SDS011;59882;45.624;11.698;2024-01-06T03:30:06;2.53;;;0.53;;
66927;SDS011;59882;45.624;11.698;2024-01-06T03:32:32;2.80;;;0.47;;
66927;SDS011;59882;45.624;11.698;2024-01-06T03:34:57;2.20;;;0.40;;
66927;SDS011;59882;45.624;11.698;2024-01-06T03:37:23;2.83;;;0.40;;
66927;SDS011;59882;45.624;11.698;2024-01-06T03:39:49;2.53;;;0.40;;
66927;SDS011;59882;45.624;11.698;2024-01-06T03:42:15;2.55;;;0.30;;
66927;SDS011;59882;45.624;11.698;2024-01-06T03:44:40;3.20;;;0.40;;
66927;SDS011;59882;45.624;11.698;2024-01-06T03:47:06;2.88;;;0.70;;
66927;SDS011;59882;45.624;11.698;2024-01-06T03:49:31;5.03;;;2.10;;
66927;SDS011;59882;45.624;11.698;2024-01-06T03:51:57;8.68;;;3.80;;
66927;SDS011;59882;45.624;11.698;2024-01-06T03:54:23;8.17;;;4.23;;
66927;SDS011;59882;45.624;11.698;2024-01-06T03:56:49;8.57;;;4.50;;
66927;SDS011;59882;45.624;11.698;2024-01-06T03:59:15;6.87;;;4.37;;
66927;SDS011;59882;45.624;11.698;2024-01-06T04:01:40;7.47;;;4.70;;
66927;SDS011;59882;45.624;11.698;2024-01-06T04:04:06;6.38;;;3.78;;
66927;SDS011;59882;45.624;11.698;2024-01-06T04:06:32;6.70;;;3.73;;
66927;SDS011;59882;45.624;11.698;2024-01-06T04:08:58;6.55;;;3.83;;
66927;SDS011;59882;45.624;11.698;2024-01-06T04:11:23;5.83;;;3.87;;
66927;SDS011;59882;45.624;11.698;2024-01-06T04:13:49;5.78;;;3.55;;
66927;SDS011;59882;45.624;11.698;2024-01-06T04:16:15;5.50;;;3.00;;
66927;SDS011;59882;45.624;11.698;2024-01-06T04:18:40;5.30;;;2.90;;
66927;SDS011;59882;45.624;11.698;2024-01-06T04:21:06;7.10;;;4.70;;
66927;SDS011;59882;45.624;11.698;2024-01-06T04:23:31;6.13;;;4.60;;
66927;SDS011;59882;45.624;11.698;2024-01-06T04:25:57;7.93;;;3.97;;
66927;SDS011;59882;45.624;11.698;2024-01-06T04:28:23;7.03;;;4.30;;
66927;SDS011;59882;45.624;11.698;2024-01-06T04:30:48;6.67;;;3.80;;
66927;SDS011;59882;45.624;11.698;2024-01-06T04:33:14;4.97;;;3.30;;
66927;SDS011;59882;45.624;11.698;2024-01-06T04:35:40;6.55;;;3.90;;
66927;SDS011;59882;45.624;11.698;2024-01-06T04:38:05;5.33;;;3.13;;
66927;SDS011;59882;45.624;11.698;2024-01-06T04:40:31;5.33;;;3.20;;
66927;SDS011;59882;45.624;11.698;2024-01-06T04:42:56;4.28;;;1.77;;
66927;SDS011;59882;45.624;11.698;2024-01-06T04:45:22;2.63;;;0.70;;
66927;SDS011;59882;45.624;11.698;2024-01-06T04:47:49;2.58;;;0.40;;
66927;SDS011;59882;45.624;11.698;2024-01-06T04:50:15;3.00;;;0.52;;
66927;SDS011;59882;45.624;11.698;2024-01-06T04:52:42;2.33;;;0.40;;
66927;SDS011;59882;45.624;11.698;2024-01-06T04:55:08;2.93;;;0.60;;
66927;SDS011;59882;45.624;11.698;2024-01-06T04:57:34;2.83;;;0.60;;
66927;SDS011;59882;45.624;11.698;2024-01-06T05:00:00;4.30;;;0.93;;
66927;SDS011;59882;45.624;11.698;2024-01-06T05:02:26;3.60;;;0.63;;
66927;SDS011;59882;45.624;11.698;2024-01-06T05:04:52;3.45;;;0.50;;
66927;SDS011;59882;45.624;11.698;2024-01-06T05:07:38;2.05;;;0.30;;
66927;SDS011;59882;45.624;11.698;2024-01-06T05:10:03;2.10;;;0.30;;
66927;SDS011;59882;45.624;11.698;2024-01-06T05:12:29;2.30;;;0.30;;
66927;SDS011;59882;45.624;11.698;2024-01-06T05:14:55;3.60;;;0.60;;
66927;SDS011;59882;45.624;11.698;2024-01-06T05:17:20;4.30;;;0.83;;
66927;SDS011;59882;45.624;11.698;2024-01-06T05:19:46;4.10;;;1.27;;
66927;SDS011;59882;45.624;11.698;2024-01-06T05:22:12;3.20;;;0.90;;
66927;SDS011;59882;45.624;11.698;2024-01-06T05:24:37;3.70;;;0.90;;
66927;SDS011;59882;45.624;11.698;2024-01-06T05:27:03;2.73;;;0.60;;
66927;SDS011;59882;45.624;11.698;2024-01-06T05:29:29;2.20;;;0.50;;
66927;SDS011;59882;45.624;11.698;2024-01-06T05:31:54;2.63;;;0.50;;
66927;SDS011;59882;45.624;11.698;2024-01-06T05:34:20;3.25;;;0.75;;
66927;SDS011;59882;45.624;11.698;2024-01-06T05:36:46;4.43;;;2.33;;
66927;SDS011;59882;45.624;11.698;2024-01-06T05:39:11;6.33;;;3.80;;
66927;SDS011;59882;45.624;11.698;2024-01-06T05:41:37;5.72;;;3.58;;
66927;SDS011;59882;45.624;11.698;2024-01-06T05:44:04;5.10;;;3.28;;
66927;SDS011;59882;45.624;11.698;2024-01-06T05:46:30;3.80;;;1.93;;
66927;SDS011;59882;45.624;11.698;2024-01-06T05:48:55;4.88;;;2.33;;
66927;SDS011;59882;45.624;11.698;2024-01-06T05:51:21;5.90;;;2.83;;
66927;SDS011;59882;45.624;11.698;2024-01-06T05:53:47;5.53;;;2.63;;
66927;SDS011;59882;45.624;11.698;2024-01-06T05:56:34;5.03;;;2.20;;
66927;SDS011;59882;45.624;11.698;2024-01-06T05:58:58;5.15;;;1.25;;
66927;SDS011;59882;45.624;11.698;2024-01-06T06:01:24;2.95;;;0.45;;
66927;SDS011;59882;45.624;11.698;2024-01-06T06:03:50;2.13;;;0.47;;
66927;SDS011;59882;45.624;11.698;2024-01-06T06:06:16;1.70;;;0.20;;
66927;SDS011;59882;45.624;11.698;2024-01-06T06:08:42;3.03;;;0.50;;
66927;SDS011;59882;45.624;11.698;2024-01-06T06:11:08;2.20;;;0.30;;
66927;SDS011;59882;45.624;11.698;2024-01-06T06:13:37;2.92;;;0.30;;
66927;SDS011;59882;45.624;11.698;2024-01-06T06:16:04;2.60;;;0.47;;
66927;SDS011;59882;45.624;11.698;2024-01-06T06:18:30;1.80;;;0.20;;
66927;SDS011;59882;45.624;11.698;2024-01-06T06:20:56;2.00;;;0.40;;
66927;SDS011;59882;45.624;11.698;2024-01-06T06:23:21;2.53;;;0.30;;
66927;SDS011;59882;45.624;11.698;2024-01-06T06:25:47;3.03;;;0.30;;
66927;SDS011;59882;45.624;11.698;2024-01-06T06:28:12;3.37;;;0.60;;
66927;SDS011;59882;45.624;11.698;2024-01-06T06:30:38;2.95;;;0.50;;
66927;SDS011;59882;45.624;11.698;2024-01-06T06:33:04;4.57;;;0.80;;
66927;SDS011;59882;45.624;11.698;2024-01-06T06:35:30;2.60;;;0.35;;
66927;SDS011;59882;45.624;11.698;2024-01-06T06:37:55;3.00;;;0.77;;
66927;SDS011;59882;45.624;11.698;2024-01-06T06:40:21;3.90;;;1.23;;
66927;SDS011;59882;45.624;11.698;2024-01-06T06:42:46;3.65;;;1.00;;
66927;SDS011;59882;45.624;11.698;2024-01-06T06:45:12;3.22;;;0.75;;
66927;SDS011;59882;45.624;11.698;2024-01-06T06:47:38;3.53;;;0.67;;
66927;SDS011;59882;45.624;11.698;2024-01-06T06:50:04;2.80;;;0.40;;
66927;SDS011;59882;45.624;11.698;2024-01-06T06:52:30;2.80;;;0.57;;
66927;SDS011;59882;45.624;11.698;2024-01-06T06:54:56;2.40;;;0.50;;
66927;SDS011;59882;45.624;11.698;2024-01-06T06:57:21;3.33;;;0.60;;
66927;SDS011;59882;45.624;11.698;2024-01-06T06:59:47;4.13;;;0.85;;
66927;SDS011;59882;45.624;11.698;2024-01-06T07:02:13;4.03;;;1.50;;
66927;SDS011;59882;45.624;11.698;2024-01-06T07:04:38;3.93;;;1.80;;
66927;SDS011;59882;45.624;11.698;2024-01-06T07:07:04;4.63;;;2.20;;
66927;SDS011;59882;45.624;11.698;2024-01-06T07:09:29;3.87;;;1.70;;
66927;SDS011;59882;45.624;11.698;2024-01-06T07:11:55;4.50;;;1.10;;
66927;SDS011;59882;45.624;11.698;2024-01-06T07:14:20;3.93;;;0.77;;
66927;SDS011;59882;45.624;11.698;2024-01-06T07:16:46;4.05;;;0.60;;
66927;SDS011;59882;45.624;11.698;2024-01-06T07:19:12;3.77;;;0.60;;
66927;SDS011;59882;45.624;11.698;2024-01-06T07:21:37;3.10;;;0.80;;
66927;SDS011;59882;45.624;11.698;2024-01-06T07:24:03;3.15;;;0.57;;
66927;SDS011;59882;45.624;11.698;2024-01-06T07:26:29;3.47;;;0.87;;
66927;SDS011;59882;45.624;11.698;2024-01-06T07:28:54;3.58;;;0.77;;
66927;SDS011;59882;45.624;11.698;2024-01-06T07:31:20;2.97;;;0.70;;
66927;SDS011;59882;45.624;11.698;2024-01-06T07:33:45;2.92;;;0.47;;
66927;SDS011;59882;45.624;11.698;2024-01-06T07:36:11;4.00;;;0.60;;
66927;SDS011;59882;45.624;11.698;2024-01-06T07:38:37;3.28;;;0.40;;
66927;SDS011;59882;45.624;11.698;2024-01-06T07:41:03;3.03;;;0.23;;
66927;SDS011;59882;45.624;11.698;2024-01-06T07:43:29;2.58;;;0.40;;
66927;SDS011;59882;45.624;11.698;2024-01-06T07:45:55;3.05;;;0.30;;
66927;SDS011;59882;45.624;11.698;2024-01-06T07:48:21;2.07;;;0.30;;
66927;SDS011;59882;45.624;11.698;2024-01-06T07:50:47;3.22;;;0.30;;
66927;SDS011;59882;45.624;11.698;2024-01-06T07:53:12;3.47;;;0.40;;
66927;SDS011;59882;45.624;11.698;2024-01-06T07:55:39;3.10;;;0.38;;
66927;SDS011;59882;45.624;11.698;2024-01-06T07:58:05;2.85;;;0.30;;
66927;SDS011;59882;45.624;11.698;2024-01-06T08:00:31;2.27;;;0.20;;
66927;SDS011;59882;45.624;11.698;2024-01-06T08:02:56;1.80;;;0.20;;
66927;SDS011;59882;45.624;11.698;2024-01-06T08:05:22;2.00;;;0.30;;
66927;SDS011;59882;45.624;11.698;2024-01-06T08:07:47;1.75;;;0.30;;
66927;SDS011;59882;45.624;11.698;2024-01-06T08:10:14;2.50;;;0.40;;
66927;SDS011;59882;45.624;11.698;2024-01-06T08:12:40;3.35;;;0.30;;
66927;SDS011;59882;45.624;11.698;2024-01-06T08:15:05;2.53;;;0.50;;
66927;SDS011;59882;45.624;11.698;2024-01-06T08:17:33;2.15;;;0.50;;
66927;SDS011;59882;45.624;11.698;2024-01-06T08:19:59;3.50;;;0.70;;
66927;SDS011;59882;45.624;11.698;2024-01-06T08:22:24;3.05;;;0.65;;
66927;SDS011;59882;45.624;11.698;2024-01-06T08:24:50;3.03;;;0.70;;
66927;SDS011;59882;45.624;11.698;2024-01-06T08:27:16;2.78;;;0.75;;
66927;SDS011;59882;45.624;11.698;2024-01-06T08:29:41;3.27;;;1.00;;
66927;SDS011;59882;45.624;11.698;2024-01-06T08:32:07;2.97;;;0.77;;
66927;SDS011;59882;45.624;11.698;2024-01-06T08:34:33;7.03;;;2.20;;
66927;SDS011;59882;45.624;11.698;2024-01-06T08:36:58;6.05;;;2.88;;
66927;SDS011;59882;45.624;11.698;2024-01-06T08:39:24;7.97;;;3.53;;
66927;SDS011;59882;45.624;11.698;2024-01-06T08:41:50;7.22;;;3.20;;
66927;SDS011;59882;45.624;11.698;2024-01-06T08:44:15;5.63;;;2.40;;
66927;SDS011;59882;45.624;11.698;2024-01-06T08:46:41;5.50;;;2.22;;
66927;SDS011;59882;45.624;11.698;2024-01-06T08:49:07;6.90;;;3.90;;
66927;SDS011;59882;45.624;11.698;2024-01-06T08:51:33;4.75;;;1.90;;
66927;SDS011;59882;45.624;11.698;2024-01-06T08:53:58;3.90;;;1.25;;
66927;SDS011;59882;45.624;11.698;2024-01-06T08:56:24;3.20;;;0.90;;
66927;SDS011;59882;45.624;11.698;2024-01-06T08:58:50;3.13;;;0.90;;
66927;SDS011;59882;45.624;11.698;2024-01-06T09:01:16;3.43;;;0.83;;
66927;SDS011;59882;45.624;11.698;2024-01-06T09:03:41;3.00;;;0.50;;
66927;SDS011;59882;45.624;11.698;2024-01-06T09:06:07;3.60;;;0.70;;
66927;SDS011;59882;45.624;11.698;2024-01-06T09:08:33;3.35;;;0.80;;
66927;SDS011;59882;45.624;11.698;2024-01-06T09:10:58;4.10;;;0.90;;
66927;SDS011;59882;45.624;11.698;2024-01-06T09:13:24;2.70;;;0.80;;
66927;SDS011;59882;45.624;11.698;2024-01-06T09:15:53;5.40;;;1.85;;
66927;SDS011;59882;45.624;11.698;2024-01-06T09:18:19;6.10;;;3.70;;
66927;SDS011;59882;45.624;11.698;2024-01-06T09:20:45;9.60;;;4.90;;
66927;SDS011;59882;45.624;11.698;2024-01-06T09:23:13;9.10;;;6.32;;
66927;SDS011;59882;45.624;11.698;2024-01-06T09:25:39;10.07;;;6.40;;
66927;SDS011;59882;45.624;11.698;2024-01-06T09:28:05;8.73;;;6.07;;
66927;SDS011;59882;45.624;11.698;2024-01-06T09:30:31;9.32;;;5.60;;
66927;SDS011;59882;45.624;11.698;2024-01-06T09:32:57;8.20;;;5.15;;
66927;SDS011;59882;45.624;11.698;2024-01-06T09:35:23;11.40;;;7.85;;
66927;SDS011;59882;45.624;11.698;2024-01-06T09:37:48;12.87;;;8.60;;
66927;SDS011;59882;45.624;11.698;2024-01-06T09:40:14;10.00;;;6.80;;
66927;SDS011;59882;45.624;11.698;2024-01-06T09:42:46;8.27;;;5.80;;
66927;SDS011;59882;45.624;11.698;2024-01-06T09:45:11;12.37;;;9.43;;
66927;SDS011;59882;45.624;11.698;2024-01-06T09:47:37;18.10;;;15.23;;
66927;SDS011;59882;45.624;11.698;2024-01-06T09:50:06;18.58;;;16.50;;
66927;SDS011;59882;45.624;11.698;2024-01-06T09:52:36;14.07;;;12.20;;
66927;SDS011;59882;45.624;11.698;2024-01-06T09:55:05;10.30;;;8.02;;
66927;SDS011;59882;45.624;11.698;2024-01-06T09:57:36;10.52;;;6.70;;
66927;SDS011;59882;45.624;11.698;2024-01-06T10:00:01;9.50;;;6.63;;
66927;SDS011;59882;45.624;11.698;2024-01-06T10:02:29;10.15;;;5.93;;
66927;SDS011;59882;45.624;11.698;2024-01-06T10:04:56;9.48;;;6.40;;
66927;SDS011;59882;45.624;11.698;2024-01-06T10:07:23;8.88;;;5.97;;
66927;SDS011;59882;45.624;11.698;2024-01-06T10:09:50;8.73;;;4.87;;
66927;SDS011;59882;45.624;11.698;2024-01-06T10:12:23;6.35;;;3.45;;
66927;SDS011;59882;45.624;11.698;2024-01-06T10:14:50;8.20;;;4.15;;
66927;SDS011;59882;45.624;11.698;2024-01-06T10:17:16;7.60;;;3.40;;
66927;SDS011;59882;45.624;11.698;2024-01-06T10:19:44;5.83;;;2.53;;
66927;SDS011;59882;45.624;11.698;2024-01-06T10:22:10;6.25;;;2.97;;
66927;SDS011;59882;45.624;11.698;2024-01-06T10:24:39;5.30;;;3.00;;
66927;SDS011;59882;45.624;11.698;2024-01-06T10:27:05;6.68;;;4.22;;
66927;SDS011;59882;45.624;11.698;2024-01-06T10:29:31;7.20;;;5.00;;
66927;SDS011;59882;45.624;11.698;2024-01-06T10:31:57;10.10;;;5.68;;
66927;SDS011;59882;45.624;11.698;2024-01-06T10:34:24;8.00;;;5.68;;
66927;SDS011;59882;45.624;11.698;2024-01-06T10:36:50;9.73;;;4.20;;
66927;SDS011;59882;45.624;11.698;2024-01-06T10:39:19;5.50;;;3.10;;
66927;SDS011;59882;45.624;11.698;2024-01-06T10:41:46;6.65;;;3.13;;
66927;SDS011;59882;45.624;11.698;2024-01-06T10:44:14;7.05;;;3.80;;
66927;SDS011;59882;45.624;11.698;2024-01-06T10:46:40;7.65;;;4.05;;
66927;SDS011;59882;45.624;11.698;2024-01-06T10:49:06;7.53;;;3.65;;
66927;SDS011;59882;45.624;11.698;2024-01-06T10:51:36;7.83;;;3.60;;
66927;SDS011;59882;45.624;11.698;2024-01-06T10:54:02;6.93;;;3.25;;
66927;SDS011;59882;45.624;11.698;2024-01-06T10:56:31;6.90;;;3.60;;
66927;SDS011;59882;45.624;11.698;2024-01-06T10:59:03;7.32;;;4.07;;
66927;SDS011;59882;45.624;11.698;2024-01-06T11:01:29;8.70;;;3.37;;
66927;SDS011;59882;45.624;11.698;2024-01-06T11:03:56;6.65;;;3.00;;
66927;SDS011;59882;45.624;11.698;2024-01-06T11:06:23;7.03;;;2.70;;
66927;SDS011;59882;45.624;11.698;2024-01-06T11:11:31;7.07;;;2.63;;
66927;SDS011;59882;45.624;11.698;2024-01-06T11:16:46;5.20;;;2.60;;
66927;SDS011;59882;45.624;11.698;2024-01-06T11:19:57;5.93;;;2.60;;
66927;SDS011;59882;45.624;11.698;2024-01-06T11:22:20;5.20;;;2.53;;
66927;SDS011;59882;45.624;11.698;2024-01-06T11:24:57;7.03;;;4.28;;
66927;SDS011;59882;45.624;11.698;2024-01-06T11:27:30;7.75;;;3.55;;
66927;SDS011;59882;45.624;11.698;2024-01-06T11:29:59;7.82;;;4.20;;
66927;SDS011;59882;45.624;11.698;2024-01-06T11:32:30;6.63;;;3.63;;
66927;SDS011;59882;45.624;11.698;2024-01-06T11:35:10;5.67;;;2.83;;
66927;SDS011;59882;45.624;11.698;2024-01-06T11:37:50;6.32;;;3.05;;
66927;SDS011;59882;45.624;11.698;2024-01-06T11:42:46;6.70;;;3.27;;
66927;SDS011;59882;45.624;11.698;2024-01-06T11:45:27;6.03;;;3.08;;
66927;SDS011;59882;45.624;11.698;2024-01-06T11:47:54;7.53;;;3.50;;
66927;SDS011;59882;45.624;11.698;2024-01-06T11:50:23;6.20;;;2.72;;
66927;SDS011;59882;45.624;11.698;2024-01-06T11:52:50;6.72;;;3.33;;
66927;SDS011;59882;45.624;11.698;2024-01-06T11:55:17;7.40;;;3.73;;
66927;SDS011;59882;45.624;11.698;2024-01-06T11:57:44;7.07;;;2.80;;
66927;SDS011;59882;45.624;11.698;2024-01-06T12:00:10;6.45;;;3.00;;
66927;SDS011;59882;45.624;11.698;2024-01-06T12:02:37;7.43;;;3.65;;
66927;SDS011;59882;45.624;11.698;2024-01-06T12:05:02;7.50;;;3.97;;
66927;SDS011;59882;45.624;11.698;2024-01-06T12:07:28;6.55;;;3.92;;
66927;SDS011;59882;45.624;11.698;2024-01-06T12:10:00;9.40;;;4.00;;
66927;SDS011;59882;45.624;11.698;2024-01-06T12:12:27;8.25;;;4.47;;
66927;SDS011;59882;45.624;11.698;2024-01-06T12:14:53;8.43;;;5.10;;
66927;SDS011;59882;45.624;11.698;2024-01-06T12:17:19;7.43;;;5.00;;
66927;SDS011;59882;45.624;11.698;2024-01-06T12:19:46;8.20;;;4.50;;
66927;SDS011;59882;45.624;11.698;2024-01-06T12:22:13;7.82;;;4.97;;
66927;SDS011;59882;45.624;11.698;2024-01-06T12:24:40;7.60;;;3.87;;
66927;SDS011;59882;45.624;11.698;2024-01-06T12:27:07;8.63;;;4.90;;
66927;SDS011;59882;45.624;11.698;2024-01-06T12:29:40;7.85;;;4.22;;
66927;SDS011;59882;45.624;11.698;2024-01-06T12:32:06;7.25;;;4.32;;
66927;SDS011;59882;45.624;11.698;2024-01-06T12:34:36;8.02;;;5.10;;
66927;SDS011;59882;45.624;11.698;2024-01-06T12:37:04;9.77;;;5.30;;
66927;SDS011;59882;45.624;11.698;2024-01-06T12:39:31;10.02;;;6.30;;
66927;SDS011;59882;45.624;11.698;2024-01-06T12:41:57;9.15;;;5.85;;
66927;SDS011;59882;45.624;11.698;2024-01-06T12:44:25;16.40;;;10.10;;
66927;SDS011;59882;45.624;11.698;2024-01-06T12:46:51;12.73;;;8.10;;
66927;SDS011;59882;45.624;11.698;2024-01-06T12:49:16;11.00;;;5.10;;
66927;SDS011;59882;45.624;11.698;2024-01-06T12:51:42;8.13;;;4.40;;
66927;SDS011;59882;45.624;11.698;2024-01-06T12:54:08;7.35;;;2.35;;
66927;SDS011;59882;45.624;11.698;2024-01-06T12:56:33;5.37;;;2.10;;
66927;SDS011;59882;45.624;11.698;2024-01-06T12:59:19;5.97;;;2.03;;
66927;SDS011;59882;45.624;11.698;2024-01-06T13:01:45;3.97;;;1.43;;
66927;SDS011;59882;45.624;11.698;2024-01-06T13:04:10;5.00;;;1.38;;
66927;SDS011;59882;45.624;11.698;2024-01-06T14:00:20;5.35;;;2.97;;
66927;SDS011;59882;45.624;11.698;2024-01-06T14:02:47;5.43;;;2.70;;
66927;SDS011;59882;45.624;11.698;2024-01-06T14:05:12;5.30;;;2.50;;
66927;SDS011;59882;45.624;11.698;2024-01-06T14:07:38;5.85;;;2.75;;
66927;SDS011;59882;45.624;11.698;2024-01-06T14:10:10;5.28;;;2.85;;
66927;SDS011;59882;45.624;11.698;2024-01-06T14:12:36;6.45;;;2.92;;
66927;SDS011;59882;45.624;11.698;2024-01-06T14:15:01;5.50;;;3.00;;
66927;SDS011;59882;45.624;11.698;2024-01-06T14:17:28;4.90;;;2.50;;
66927;SDS011;59882;45.624;11.698;2024-01-06T14:19:54;5.10;;;2.40;;
66927;SDS011;59882;45.624;11.698;2024-01-06T14:22:19;4.10;;;1.75;;
66927;SDS011;59882;45.624;11.698;2024-01-06T14:24:45;3.80;;;1.50;;
66927;SDS011;59882;45.624;11.698;2024-01-06T14:27:10;4.57;;;1.77;;
66927;SDS011;59882;45.624;11.698;2024-01-06T14:29:36;4.37;;;1.80;;
66927;SDS011;59882;45.624;11.698;2024-01-06T14:32:04;4.95;;;2.28;;
66927;SDS011;59882;45.624;11.698;2024-01-06T14:34:30;5.05;;;2.47;;
66927;SDS011;59882;45.624;11.698;2024-01-06T14:36:56;6.13;;;3.00;;
66927;SDS011;59882;45.624;11.698;2024-01-06T14:39:21;4.78;;;2.75;;
66927;SDS011;59882;45.624;11.698;2024-01-06T14:41:47;5.37;;;3.13;;
66927;SDS011;59882;45.624;11.698;2024-01-06T14:44:14;6.03;;;3.97;;
66927;SDS011;59882;45.624;11.698;2024-01-06T14:46:39;6.15;;;2.92;;
66927;SDS011;59882;45.624;11.698;2024-01-06T14:49:06;5.25;;;2.38;;
66927;SDS011;59882;45.624;11.698;2024-01-06T14:51:32;6.07;;;2.28;;
66927;SDS011;59882;45.624;11.698;2024-01-06T14:53:58;4.50;;;2.00;;
66927;SDS011;59882;45.624;11.698;2024-01-06T14:56:24;4.67;;;2.20;;
66927;SDS011;59882;45.624;11.698;2024-01-06T14:58:49;5.53;;;2.33;;
66927;SDS011;59882;45.624;11.698;2024-01-06T15:01:15;5.03;;;2.13;;
66927;SDS011;59882;45.624;11.698;2024-01-06T15:03:40;6.60;;;2.67;;
66927;SDS011;59882;45.624;11.698;2024-01-06T15:06:06;6.23;;;2.40;;
66927;SDS011;59882;45.624;11.698;2024-01-06T15:08:33;4.40;;;2.33;;
66927;SDS011;59882;45.624;11.698;2024-01-06T15:10:58;5.67;;;2.67;;
66927;SDS011;59882;45.624;11.698;2024-01-06T15:13:24;9.35;;;3.15;;
66927;SDS011;59882;45.624;11.698;2024-01-06T15:15:49;6.20;;;3.20;;
66927;SDS011;59882;45.624;11.698;2024-01-06T15:18:18;6.32;;;3.58;;
66927;SDS011;59882;45.624;11.698;2024-01-06T15:20:48;8.32;;;4.32;;
66927;SDS011;59882;45.624;11.698;2024-01-06T15:23:13;5.93;;;3.40;;
66927;SDS011;59882;45.624;11.698;2024-01-06T15:25:40;7.32;;;4.20;;
66927;SDS011;59882;45.624;11.698;2024-01-06T15:28:07;6.68;;;3.40;;
66927;SDS011;59882;45.624;11.698;2024-01-06T15:30:33;8.00;;;4.05;;